createdAt,value
2022-08-02T00:01:28.345Z,1.70
2022-08-02T00:04:02.406Z,1.30
2022-08-02T00:06:31.286Z,1.70
2022-08-02T00:09:01.701Z,1.50
2022-08-02T00:11:32.086Z,1.80
2022-08-02T00:13:59.738Z,1.75
2022-08-02T00:16:38.233Z,1.70
2022-08-02T00:19:06.433Z,1.60
2022-08-02T00:21:33.830Z,1.65
2022-08-02T00:24:28.815Z,1.88
2022-08-02T00:26:53.930Z,1.60
2022-08-02T00:29:27.973Z,1.85
2022-08-02T00:31:58.060Z,1.88
2022-08-02T00:34:28.821Z,1.63
2022-08-02T00:37:03.702Z,1.45
2022-08-02T00:39:35.312Z,1.50
2022-08-02T00:42:07.633Z,1.80
2022-08-02T00:44:39.268Z,1.80
2022-08-02T00:47:09.226Z,2.00
2022-08-02T00:49:38.982Z,1.90
2022-08-02T00:52:06.720Z,1.90
2022-08-02T00:54:36.479Z,1.73
2022-08-02T00:57:05.030Z,1.75
2022-08-02T00:59:38.804Z,1.90
2022-08-02T01:02:09.355Z,1.90
2022-08-02T01:04:40.770Z,1.67
2022-08-02T01:07:12.843Z,1.90
2022-08-02T01:12:12.846Z,2.03
2022-08-02T01:14:42.701Z,1.90
2022-08-02T01:17:29.824Z,1.80
2022-08-02T01:20:21.733Z,1.83
2022-08-02T01:23:08.917Z,1.90
2022-08-02T01:25:39.035Z,2.08
2022-08-02T01:28:33.976Z,1.80
2022-08-02T01:31:14.158Z,2.00
2022-08-02T01:33:51.672Z,1.70
2022-08-02T01:36:21.816Z,2.05
2022-08-02T01:38:56.868Z,2.03
2022-08-02T01:41:28.361Z,2.10
2022-08-02T01:44:00.139Z,2.03
2022-08-02T01:46:32.328Z,2.10
2022-08-02T01:49:07.377Z,2.13
2022-08-02T01:51:58.690Z,1.85
2022-08-02T01:54:33.573Z,2.03
2022-08-02T01:57:08.948Z,2.03
2022-08-02T01:59:48.662Z,2.00
2022-08-02T02:02:23.361Z,1.90
2022-08-02T02:04:57.718Z,1.88
2022-08-02T02:07:36.356Z,2.10
2022-08-02T02:10:05.827Z,2.20
2022-08-02T02:12:39.692Z,2.08
2022-08-02T02:15:12.144Z,1.80
2022-08-02T02:17:52.855Z,2.10
2022-08-02T02:20:34.837Z,2.50
2022-08-02T02:23:07.280Z,2.00
2022-08-02T02:25:46.549Z,2.17
2022-08-02T02:28:30.149Z,2.03
2022-08-02T02:31:09.938Z,2.30
2022-08-02T02:39:13.531Z,2.30
2022-08-02T02:41:43.624Z,1.98
2022-08-02T02:44:22.230Z,2.60
2022-08-02T02:46:54.881Z,2.30
2022-08-02T02:49:30.258Z,2.50
2022-08-02T02:51:58.261Z,2.00
2022-08-02T02:54:34.092Z,2.00
2022-08-02T02:57:06.677Z,2.17
2022-08-02T02:59:49.158Z,2.22
2022-08-02T03:04:56.377Z,2.22
2022-08-02T03:07:26.821Z,2.10
2022-08-02T03:09:56.549Z,2.10
2022-08-02T03:12:30.141Z,1.92
2022-08-02T03:15:00.942Z,1.90
2022-08-02T03:17:42.675Z,1.92
2022-08-02T03:20:18.193Z,2.00
2022-08-02T03:22:47.227Z,1.92
2022-08-02T03:25:16.227Z,2.15
2022-08-02T03:27:43.456Z,2.25
2022-08-02T03:30:13.036Z,2.22
2022-08-02T03:32:42.769Z,1.77
2022-08-02T03:35:14.074Z,2.10
2022-08-02T03:37:41.953Z,2.08
2022-08-02T03:40:13.196Z,2.00
2022-08-02T03:42:41.738Z,2.33
2022-08-02T03:45:11.320Z,2.35
2022-08-02T03:47:39.621Z,1.90
2022-08-02T03:50:15.731Z,1.77
2022-08-02T03:52:45.079Z,2.00
2022-08-02T03:55:13.340Z,2.17
2022-08-02T03:57:42.436Z,2.15
2022-08-02T04:00:13.274Z,2.42
2022-08-02T04:02:41.187Z,2.28
2022-08-02T04:05:09.258Z,2.13
2022-08-02T04:08:32.937Z,2.40
2022-08-02T04:10:23.789Z,2.40
2022-08-02T04:12:54.148Z,2.22
2022-08-02T04:15:23.553Z,2.33
2022-08-02T04:17:56.614Z,2.67
2022-08-02T04:20:33.594Z,2.60
2022-08-02T04:23:06.489Z,2.50
2022-08-02T04:25:40.163Z,2.55
2022-08-02T04:28:16.527Z,2.80
2022-08-02T04:30:50.851Z,2.60
2022-08-02T04:33:18.584Z,2.60
2022-08-02T04:35:47.095Z,2.70
2022-08-02T04:38:15.618Z,2.70
2022-08-02T04:40:55.243Z,2.55
2022-08-02T04:43:22.954Z,2.50
2022-08-02T04:45:55.624Z,2.50
2022-08-02T04:48:25.373Z,2.63
2022-08-02T04:50:52.635Z,2.80
2022-08-02T04:53:23.168Z,2.47
2022-08-02T04:55:52.334Z,2.80
2022-08-02T05:01:10.554Z,3.03
2022-08-02T05:03:37.772Z,2.83
2022-08-02T05:06:13.260Z,2.33
2022-08-02T05:08:52.475Z,2.33
2022-08-02T05:11:22.084Z,2.40
2022-08-02T05:13:58.804Z,2.70
2022-08-02T05:16:30.927Z,2.40
2022-08-02T05:19:00.979Z,2.53
2022-08-02T05:21:31.866Z,2.50
2022-08-02T05:24:04.151Z,2.75
2022-08-02T05:26:31.546Z,2.72
2022-08-02T05:28:59.296Z,2.35
2022-08-02T05:31:26.786Z,2.70
2022-08-02T05:33:56.678Z,2.83
2022-08-02T05:36:24.220Z,2.45
2022-08-02T05:39:04.698Z,2.75
2022-08-02T05:41:35.719Z,2.63
2022-08-02T05:44:03.771Z,2.30
2022-08-02T05:46:31.234Z,2.65
2022-08-02T05:49:01.605Z,2.53
2022-08-02T05:51:39.712Z,2.35
2022-08-02T05:54:27.936Z,2.30
2022-08-02T05:57:00.242Z,2.53
2022-08-02T05:59:56.586Z,2.83
2022-08-02T06:02:37.678Z,2.28
2022-08-02T06:05:11.236Z,2.10
2022-08-02T06:07:41.812Z,2.55
2022-08-02T06:10:10.405Z,2.53
2022-08-02T06:12:45.428Z,2.10
2022-08-02T06:15:21.389Z,2.50
2022-08-02T06:17:55.080Z,2.05
2022-08-02T06:20:24.129Z,2.25
2022-08-02T06:22:52.991Z,2.30
2022-08-02T06:25:48.194Z,2.20
2022-08-02T06:28:10.625Z,2.00
2022-08-02T06:30:39.560Z,2.20
2022-08-02T06:33:10.603Z,2.33
2022-08-02T06:35:46.312Z,2.20
2022-08-02T06:38:22.248Z,2.50
2022-08-02T06:41:03.349Z,2.50
2022-08-02T06:44:45.864Z,2.30
2022-08-02T06:47:11.700Z,2.30
2022-08-02T06:49:52.406Z,2.13
2022-08-02T06:52:34.332Z,2.47
2022-08-02T06:55:05.312Z,2.40
2022-08-02T06:57:33.862Z,2.17
2022-08-02T07:00:13.399Z,2.28
2022-08-02T07:02:42.226Z,2.45
2022-08-02T07:05:23.037Z,2.10
2022-08-02T07:10:26.026Z,2.50
2022-08-02T07:13:18.105Z,2.38
2022-08-02T07:15:53.283Z,2.45
2022-08-02T07:18:29.551Z,2.50
2022-08-02T07:20:57.310Z,2.47
2022-08-02T07:23:28.953Z,2.92
2022-08-02T07:26:17.714Z,2.70
2022-08-02T07:28:55.036Z,2.72
2022-08-02T07:31:24.636Z,2.90
2022-08-02T07:34:04.246Z,2.53
2022-08-02T07:36:34.784Z,2.50
2022-08-02T07:39:04.720Z,2.50
2022-08-02T07:41:40.946Z,2.67
2022-08-02T07:44:08.296Z,2.75
2022-08-02T07:46:35.849Z,2.97
2022-08-02T07:49:05.890Z,2.83
2022-08-02T07:51:36.606Z,3.17
2022-08-02T07:54:04.948Z,2.95
2022-08-02T07:56:34.866Z,3.22
2022-08-02T07:59:02.115Z,4.63
2022-08-02T08:01:29.644Z,4.57
2022-08-02T08:03:57.247Z,5.00
2022-08-02T08:06:29.538Z,4.25
2022-08-02T08:08:57.614Z,4.40
2022-08-02T08:11:25.104Z,4.10
2022-08-02T08:13:52.563Z,4.57
2022-08-02T08:16:20.171Z,4.40
2022-08-02T08:18:47.939Z,3.60
2022-08-02T08:21:15.243Z,3.70
2022-08-02T08:23:42.670Z,3.80
2022-08-02T08:26:12.744Z,3.60
2022-08-02T08:28:45.475Z,3.35
2022-08-02T08:31:12.966Z,3.75
2022-08-02T08:33:40.807Z,3.22
2022-08-02T08:36:12.637Z,3.20
2022-08-02T08:38:42.684Z,3.13
2022-08-02T08:41:10.013Z,3.40
2022-08-02T08:43:37.428Z,3.25
2022-08-02T08:46:12.252Z,3.25
2022-08-02T08:48:46.366Z,3.00
2022-08-02T08:51:19.291Z,3.28
2022-08-02T08:53:54.138Z,3.00
2022-08-02T08:56:21.523Z,3.08
2022-08-02T08:58:48.992Z,3.55
2022-08-02T09:01:17.155Z,2.65
2022-08-02T09:03:48.007Z,3.40
2022-08-02T09:06:18.086Z,2.85
2022-08-02T09:08:45.600Z,3.22
2022-08-02T09:11:15.639Z,3.35
2022-08-02T09:14:09.337Z,3.42
2022-08-02T09:16:40.399Z,3.15
2022-08-02T09:19:21.807Z,3.08
2022-08-02T09:21:50.986Z,2.85
2022-08-02T09:24:23.519Z,2.92
2022-08-02T09:26:51.507Z,3.38
2022-08-02T09:29:24.473Z,2.80
2022-08-02T09:32:03.953Z,3.15
2022-08-02T09:34:57.745Z,3.00
2022-08-02T09:37:28.023Z,3.10
2022-08-02T09:40:03.654Z,3.38
2022-08-02T09:42:33.425Z,2.85
2022-08-02T09:45:02.319Z,3.20
2022-08-02T09:47:31.270Z,3.00
2022-08-02T09:50:00.981Z,3.33
2022-08-02T09:52:37.422Z,2.90
2022-08-02T09:55:11.247Z,2.90
2022-08-02T09:57:38.906Z,2.50
2022-08-02T10:00:13.997Z,3.00
2022-08-02T10:03:21.574Z,2.80
2022-08-02T10:06:01.125Z,3.10
2022-08-02T10:08:29.714Z,2.75
2022-08-02T10:11:01.166Z,2.50
2022-08-02T10:13:34.751Z,2.65
2022-08-02T10:16:03.765Z,2.67
2022-08-02T10:18:40.308Z,2.65
2022-08-02T10:21:16.487Z,2.60
2022-08-02T10:23:45.939Z,2.60
2022-08-02T10:26:16.756Z,2.90
2022-08-02T10:28:47.484Z,2.67
2022-08-02T10:31:21.374Z,3.00
2022-08-02T10:33:52.863Z,3.00
2022-08-02T10:36:27.073Z,2.90
2022-08-02T10:38:56.054Z,3.00
2022-08-02T10:41:56.894Z,2.88
2022-08-02T10:44:43.290Z,2.80
2022-08-02T10:47:18.656Z,2.50
2022-08-02T10:50:05.562Z,3.00
2022-08-02T10:52:33.122Z,2.60
2022-08-02T10:55:04.491Z,2.40
2022-08-02T10:57:46.978Z,2.60
2022-08-02T11:00:23.553Z,2.22
2022-08-02T11:02:54.563Z,3.00
2022-08-02T11:05:29.342Z,2.53
2022-08-02T11:08:32.504Z,2.90
2022-08-02T11:11:10.644Z,2.40
2022-08-02T11:14:01.729Z,2.63
2022-08-02T11:16:57.699Z,2.90
2022-08-02T11:22:11.401Z,2.25
2022-08-02T11:24:40.353Z,2.70
2022-08-02T11:27:18.506Z,2.83
2022-08-02T11:29:49.754Z,2.33
2022-08-02T11:32:21.232Z,2.85
2022-08-02T11:34:53.907Z,2.22
2022-08-02T11:37:40.585Z,2.58
2022-08-02T11:40:19.500Z,2.78
2022-08-02T11:42:51.235Z,2.60
2022-08-02T11:45:29.404Z,2.80
2022-08-02T11:47:59.751Z,2.63
2022-08-02T11:50:29.626Z,2.95
2022-08-02T11:52:59.145Z,2.90
2022-08-02T11:55:31.082Z,2.55
2022-08-02T11:58:05.774Z,2.95
2022-08-02T12:00:34.189Z,2.85
2022-08-02T12:03:06.770Z,2.80
2022-08-02T12:06:04.405Z,2.70
2022-08-02T12:08:25.937Z,2.80
2022-08-02T12:10:53.482Z,2.50
2022-08-02T12:13:20.845Z,2.70
2022-08-02T12:15:50.645Z,2.60
2022-08-02T12:18:39.906Z,2.67
2022-08-02T12:21:25.042Z,2.35
2022-08-02T12:23:59.813Z,2.72
2022-08-02T12:26:33.691Z,2.90
2022-08-02T12:31:56.430Z,2.40
2022-08-02T12:34:31.602Z,2.95
2022-08-02T12:37:10.290Z,2.55
2022-08-02T12:39:43.272Z,2.65
2022-08-02T12:42:13.637Z,2.70
2022-08-02T12:45:10.812Z,2.25
2022-08-02T12:47:49.131Z,2.50
2022-08-02T12:50:16.417Z,2.47
2022-08-02T12:52:47.078Z,2.40
2022-08-02T12:55:59.789Z,2.55
2022-08-02T12:58:15.218Z,2.42
2022-08-02T13:00:57.426Z,2.30
2022-08-02T13:04:11.578Z,2.58
2022-08-02T13:06:40.595Z,2.13
2022-08-02T13:09:02.060Z,2.92
2022-08-02T13:11:31.486Z,2.63
2022-08-02T13:14:02.398Z,2.50
2022-08-02T13:16:31.603Z,2.40
2022-08-02T13:18:59.734Z,2.75
2022-08-02T13:21:40.049Z,2.47
2022-08-02T13:24:38.218Z,2.20
2022-08-02T13:27:05.226Z,2.35
2022-08-02T13:29:39.498Z,2.50
2022-08-02T13:32:07.769Z,2.78
2022-08-02T13:34:35.791Z,2.30
2022-08-02T13:37:09.450Z,2.50
2022-08-02T13:39:39.154Z,2.50
2022-08-02T13:42:07.613Z,2.60
2022-08-02T13:44:35.360Z,2.33
2022-08-02T13:47:03.324Z,2.17
2022-08-02T13:49:33.541Z,2.15
2022-08-02T13:52:19.058Z,2.30
2022-08-02T13:54:49.620Z,2.65
2022-08-02T13:57:17.051Z,2.30
2022-08-02T13:59:56.153Z,2.13
2022-08-02T14:02:28.403Z,2.30
2022-08-02T14:04:57.067Z,2.67
2022-08-02T14:07:38.842Z,2.83
2022-08-02T14:10:11.940Z,2.67
2022-08-02T14:12:39.213Z,2.60
2022-08-02T14:15:07.182Z,2.45
2022-08-02T14:17:38.512Z,2.50
2022-08-02T14:20:06.579Z,3.05
2022-08-02T14:22:36.486Z,3.17
2022-08-02T14:25:14.131Z,3.00
2022-08-02T14:27:46.091Z,2.83
2022-08-02T14:30:13.891Z,2.80
2022-08-02T14:32:41.287Z,2.90
2022-08-02T14:35:12.135Z,2.90
2022-08-02T14:37:39.831Z,3.20
2022-08-02T14:40:28.035Z,3.05
2022-08-02T14:42:55.534Z,2.92
2022-08-02T14:45:24.997Z,2.67
2022-08-02T14:47:52.173Z,3.38
2022-08-02T14:50:20.040Z,3.08
2022-08-02T14:52:51.497Z,2.53
2022-08-02T14:55:22.314Z,2.55
2022-08-02T14:57:52.320Z,2.63
2022-08-02T15:00:22.229Z,3.17
2022-08-02T15:02:49.401Z,2.90
2022-08-02T15:05:19.837Z,2.63
2022-08-02T15:07:49.895Z,2.60
2022-08-02T15:10:19.304Z,2.67
2022-08-02T15:12:48.924Z,2.63
2022-08-02T15:15:16.285Z,4.10
2022-08-02T15:17:48.175Z,2.60
2022-08-02T15:20:24.842Z,2.92
2022-08-02T15:23:04.262Z,2.63
2022-08-02T15:25:31.677Z,2.95
2022-08-02T15:28:05.121Z,2.47
2022-08-02T15:30:38.350Z,2.42
2022-08-02T15:33:06.702Z,3.80
2022-08-02T15:35:34.307Z,2.40
2022-08-02T15:38:06.320Z,2.75
2022-08-02T15:40:35.623Z,2.72
2022-08-02T15:43:06.327Z,2.47
2022-08-02T15:45:35.530Z,2.42
2022-08-02T15:48:04.498Z,2.75
2022-08-02T15:50:37.649Z,2.90
2022-08-02T15:53:07.862Z,2.90
2022-08-02T15:55:40.050Z,2.60
2022-08-02T15:58:26.411Z,3.08
2022-08-02T16:00:57.561Z,2.70
2022-08-02T16:03:26.550Z,2.72
2022-08-02T16:05:53.805Z,2.50
2022-08-02T16:08:21.155Z,2.60
2022-08-02T16:10:50.590Z,2.40
2022-08-02T16:13:41.040Z,2.55
2022-08-02T16:16:23.435Z,2.75
2022-08-02T16:18:53.774Z,2.60
2022-08-02T16:21:26.899Z,2.53
2022-08-02T16:24:02.769Z,3.10
2022-08-02T16:26:34.314Z,2.40
2022-08-02T16:29:04.930Z,2.70
2022-08-02T16:31:43.711Z,2.83
2022-08-02T16:34:14.563Z,2.55
2022-08-02T16:36:52.421Z,2.70
2022-08-02T16:39:19.931Z,2.65
2022-08-02T16:41:52.643Z,2.50
2022-08-02T16:44:29.455Z,2.40
2022-08-02T16:47:00.843Z,2.95
2022-08-02T16:50:05.395Z,2.83
2022-08-02T16:52:28.265Z,3.03
2022-08-02T16:55:01.689Z,2.70
2022-08-02T16:57:43.195Z,2.60
2022-08-02T17:00:15.601Z,2.55
2022-08-02T17:02:43.494Z,3.05
2022-08-02T17:05:14.381Z,2.50
2022-08-02T17:08:07.864Z,3.13
2022-08-02T17:10:37.460Z,2.45
2022-08-02T17:13:11.668Z,2.60
2022-08-02T17:16:15.815Z,2.88
2022-08-02T17:18:47.138Z,2.70
2022-08-02T17:21:18.235Z,3.00
2022-08-02T17:24:06.073Z,3.03
2022-08-02T17:26:33.965Z,2.88
2022-08-02T17:29:15.142Z,2.67
2022-08-02T17:32:12.051Z,2.70
2022-08-02T17:34:35.526Z,2.70
2022-08-02T17:37:06.136Z,2.95
2022-08-02T17:39:44.021Z,2.55
2022-08-02T17:42:23.245Z,2.75
2022-08-02T17:44:53.295Z,3.05
2022-08-02T17:47:30.980Z,3.22
2022-08-02T17:49:58.927Z,2.50
2022-08-02T17:52:49.976Z,3.15
2022-08-02T17:55:19.986Z,2.42
2022-08-02T17:58:33.453Z,3.13
2022-08-02T18:01:24.205Z,2.80
2022-08-02T18:03:57.803Z,2.70
2022-08-02T18:06:31.668Z,2.42
2022-08-02T18:22:09.735Z,2.72
2022-08-02T18:24:40.514Z,3.35
2022-08-02T18:27:14.686Z,3.38
2022-08-02T18:30:00.491Z,2.95
2022-08-02T18:33:54.618Z,3.17
2022-08-02T18:35:23.712Z,2.92
2022-08-02T18:37:57.212Z,2.80
2022-08-02T18:40:30.861Z,3.58
2022-08-02T18:42:58.391Z,3.00
2022-08-02T18:46:04.471Z,3.05
2022-08-02T18:48:17.340Z,2.72
2022-08-02T18:50:48.183Z,2.35
2022-08-02T18:53:39.247Z,3.00
2022-08-02T18:56:06.409Z,2.80
2022-08-02T18:58:35.174Z,2.60
2022-08-02T19:01:05.041Z,2.58
2022-08-02T19:03:49.323Z,2.58
2022-08-02T19:06:19.799Z,3.05
2022-08-02T19:09:06.163Z,2.60
2022-08-02T19:11:47.223Z,2.83
2022-08-02T19:17:54.453Z,2.60
2022-08-02T19:19:56.069Z,2.70
2022-08-02T19:22:23.385Z,2.50
2022-08-02T19:24:56.398Z,2.28
2022-08-02T19:27:32.727Z,2.55
2022-08-02T19:30:07.368Z,2.70
2022-08-02T19:32:58.541Z,2.55
2022-08-02T19:35:34.285Z,2.40
2022-08-02T19:38:07.600Z,2.83
2022-08-02T19:40:38.823Z,2.80
2022-08-02T19:44:21.132Z,2.60
2022-08-02T19:45:58.351Z,2.58
2022-08-02T19:48:27.214Z,2.58
2022-08-02T19:51:01.958Z,2.47
2022-08-02T19:53:47.936Z,2.38
2022-08-02T19:56:24.876Z,2.65
2022-08-02T19:58:54.884Z,2.20
2022-08-02T20:01:37.221Z,2.50
2022-08-02T20:04:13.597Z,2.60
2022-08-02T20:06:45.515Z,2.85
2022-08-02T20:12:06.721Z,2.65
2022-08-02T20:14:50.958Z,2.90
2022-08-02T20:17:20.865Z,2.90
2022-08-02T20:19:50.238Z,2.60
2022-08-02T20:22:22.704Z,2.60
2022-08-02T20:24:50.262Z,2.80
2022-08-02T20:27:23.080Z,2.80
2022-08-02T20:29:53.497Z,2.90
2022-08-02T20:32:23.905Z,3.08
2022-08-02T20:34:52.689Z,3.05
2022-08-02T20:37:59.271Z,2.75
2022-08-02T20:40:16.873Z,2.80
2022-08-02T20:42:47.749Z,3.00
2022-08-02T20:45:19.003Z,3.58
2022-08-02T20:47:50.998Z,3.45
2022-08-02T20:50:39.822Z,3.53
2022-08-02T20:53:23.543Z,3.50
2022-08-02T20:55:59.565Z,3.45
2022-08-02T20:58:29.356Z,3.30
2022-08-02T21:01:01.577Z,3.50
2022-08-02T21:03:39.203Z,3.25
2022-08-02T21:06:16.933Z,3.30
2022-08-02T21:09:05.807Z,3.17
2022-08-02T21:11:36.029Z,3.30
2022-08-02T21:14:07.876Z,3.70
2022-08-02T21:19:12.766Z,3.72
2022-08-02T21:21:41.081Z,3.47
2022-08-02T21:24:12.255Z,3.15
2022-08-02T21:26:40.467Z,3.50
2022-08-02T21:29:09.381Z,3.25
2022-08-02T21:31:36.910Z,3.70
2022-08-02T21:34:21.918Z,3.60
2022-08-02T21:36:57.218Z,3.53
2022-08-02T21:39:24.785Z,3.30
2022-08-02T21:41:54.434Z,3.35
2022-08-02T21:44:25.083Z,3.90
2022-08-02T21:46:54.921Z,3.38
2022-08-02T21:49:27.277Z,3.28
2022-08-02T21:52:08.924Z,3.05
2022-08-02T21:54:41.167Z,3.63
2022-08-02T21:57:16.143Z,3.17
2022-08-02T21:59:48.545Z,3.25
2022-08-02T22:02:22.265Z,3.03
2022-08-02T22:05:02.611Z,3.28
2022-08-02T22:07:38.224Z,3.20
2022-08-02T22:10:08.972Z,3.25
2022-08-02T22:12:36.743Z,3.42
2022-08-02T22:15:10.551Z,3.20
2022-08-02T22:17:51.317Z,2.72
2022-08-02T22:20:29.915Z,3.58
2022-08-02T22:22:59.645Z,3.40
2022-08-02T22:25:36.954Z,3.15
2022-08-02T22:28:37.714Z,3.10
2022-08-02T22:31:05.308Z,3.42
2022-08-02T22:34:01.194Z,3.25
2022-08-02T22:36:30.633Z,2.72
2022-08-02T22:38:59.041Z,3.10
2022-08-02T22:42:00.233Z,3.30
2022-08-02T22:44:18.859Z,2.90
2022-08-02T22:46:50.290Z,3.30
2022-08-02T22:49:45.419Z,3.33
2022-08-02T22:52:05.465Z,2.97
2022-08-02T22:54:32.979Z,3.42
2022-08-02T22:57:00.274Z,3.25
2022-08-02T22:58:54.654Z,2.85
2022-08-02T22:58:59.257Z,2.58
2022-08-02T22:59:39.078Z,2.95
2022-08-02T23:02:11.640Z,3.03
2022-08-02T23:04:40.288Z,3.40
2022-08-02T23:07:07.643Z,3.00
2022-08-02T23:09:37.027Z,3.28
2022-08-02T23:12:07.024Z,3.22
2022-08-02T23:14:35.319Z,3.45
2022-08-02T23:17:20.927Z,3.10
2022-08-02T23:19:51.239Z,3.20
2022-08-02T23:22:29.219Z,2.85
2022-08-02T23:25:02.195Z,2.72
2022-08-02T23:27:35.971Z,3.20
2022-08-02T23:30:05.496Z,2.90
2022-08-02T23:32:35.391Z,3.17
2022-08-02T23:35:06.856Z,3.58
2022-08-02T23:37:58.325Z,3.83
2022-08-02T23:40:39.634Z,3.58
2022-08-02T23:43:14.175Z,3.70
2022-08-02T23:45:46.179Z,4.20
2022-08-02T23:48:13.908Z,3.70
2022-08-02T23:50:43.376Z,3.33
2022-08-02T23:53:10.869Z,3.50
2022-08-02T23:55:38.263Z,3.42
2022-08-02T23:58:05.558Z,3.10
